createdAt,value
2017-06-23T00:01:04.641Z,94.80
2017-06-23T00:03:32.144Z,94.50
2017-06-23T00:06:00.400Z,94.70
2017-06-23T00:08:27.927Z,94.70
2017-06-23T00:10:55.431Z,94.70
2017-06-23T00:13:22.905Z,94.50
2017-06-23T00:15:50.418Z,94.60
2017-06-23T00:18:17.926Z,93.70
2017-06-23T00:20:45.443Z,93.10
2017-06-23T00:23:13.880Z,92.50
2017-06-23T00:25:41.367Z,92.70
2017-06-23T00:28:08.941Z,92.80
2017-06-23T00:30:36.474Z,92.40
2017-06-23T00:33:03.964Z,92.40
2017-06-23T00:35:31.456Z,91.90
2017-06-23T00:37:58.981Z,92.50
2017-06-23T00:40:26.476Z,92.00
2017-06-23T00:42:54.786Z,91.70
2017-06-23T00:45:22.291Z,91.70
2017-06-23T00:47:49.794Z,92.70
2017-06-23T00:50:17.332Z,93.20
2017-06-23T00:52:45.624Z,92.50
2017-06-23T00:55:13.157Z,92.40
2017-06-23T00:57:40.655Z,91.80
2017-06-23T01:00:08.170Z,91.70
2017-06-23T01:02:35.663Z,91.70
2017-06-23T01:05:03.177Z,91.40
2017-06-23T01:07:30.681Z,91.80
2017-06-23T01:09:58.182Z,91.80
2017-06-23T01:12:25.674Z,92.10
2017-06-23T01:14:54.022Z,92.60
2017-06-23T01:17:21.510Z,92.60
2017-06-23T01:19:49.104Z,92.10
2017-06-23T01:22:16.613Z,92.20
2017-06-23T01:24:44.087Z,92.10
2017-06-23T01:27:11.623Z,92.20
2017-06-23T01:29:39.131Z,92.10
2017-06-23T01:32:06.638Z,92.20
2017-06-23T01:34:34.134Z,94.20
2017-06-23T01:37:01.636Z,94.20
2017-06-23T01:39:29.153Z,94.70
2017-06-23T01:41:57.425Z,94.60
2017-06-23T01:44:25.703Z,94.10
2017-06-23T01:46:53.978Z,94.40
2017-06-23T01:49:22.236Z,94.00
2017-06-23T01:51:49.730Z,94.00
2017-06-23T01:54:17.238Z,93.60
2017-06-23T01:56:44.753Z,93.70
2017-06-23T01:59:12.251Z,93.90
2017-06-23T02:01:39.758Z,93.70
2017-06-23T02:04:07.280Z,94.20
2017-06-23T02:06:34.802Z,94.70
2017-06-23T02:09:02.314Z,94.00
2017-06-23T02:11:29.796Z,94.20
2017-06-23T02:13:57.319Z,94.60
2017-06-23T02:16:24.836Z,94.50
2017-06-23T02:18:52.322Z,94.90
2017-06-23T02:21:19.832Z,94.60
2017-06-23T02:23:47.349Z,94.30
2017-06-23T02:26:14.834Z,94.00
2017-06-23T02:28:42.339Z,93.60
2017-06-23T02:31:09.865Z,93.40
2017-06-23T02:33:38.128Z,94.10
2017-06-23T02:36:06.412Z,94.10
2017-06-23T02:38:34.697Z,93.80
2017-06-23T02:41:02.186Z,93.80
2017-06-23T02:43:29.693Z,94.20
2017-06-23T02:45:57.190Z,94.10
2017-06-23T02:48:24.678Z,93.50
2017-06-23T02:50:52.188Z,94.00
2017-06-23T02:53:19.690Z,94.10
2017-06-23T02:55:47.184Z,94.30
2017-06-23T02:58:14.723Z,94.30
2017-06-23T03:00:42.478Z,94.10
2017-06-23T03:03:09.961Z,94.00
2017-06-23T03:05:37.502Z,94.40
2017-06-23T03:08:05.004Z,95.20
2017-06-23T03:10:33.255Z,94.10
2017-06-23T03:13:00.791Z,94.00
2017-06-23T03:15:28.354Z,93.70
2017-06-23T03:17:55.836Z,93.80
2017-06-23T03:20:23.335Z,94.30
2017-06-23T03:22:50.833Z,94.60
2017-06-23T03:25:18.324Z,94.40
2017-06-23T03:27:46.201Z,94.20
2017-06-23T03:30:13.694Z,93.70
2017-06-23T03:32:41.201Z,93.60
2017-06-23T03:35:08.710Z,93.60
2017-06-23T03:37:36.226Z,93.80
2017-06-23T03:40:03.775Z,93.90
2017-06-23T03:42:31.299Z,94.10
2017-06-23T03:44:58.803Z,93.80
2017-06-23T03:47:26.301Z,94.40
2017-06-23T03:49:53.800Z,94.10
2017-06-23T03:52:21.299Z,94.10
2017-06-23T03:54:48.792Z,93.30
2017-06-23T03:57:16.298Z,93.70
2017-06-23T03:59:43.840Z,93.60
2017-06-23T04:02:11.330Z,93.70
2017-06-23T04:04:38.846Z,93.70
2017-06-23T04:07:06.361Z,93.60
2017-06-23T04:09:33.867Z,93.80
2017-06-23T04:12:01.362Z,93.60
2017-06-23T04:14:29.675Z,93.10
2017-06-23T04:16:57.223Z,93.00
2017-06-23T04:19:24.730Z,93.30
2017-06-23T04:21:52.224Z,93.10
2017-06-23T04:24:19.737Z,93.20
2017-06-23T04:26:47.225Z,92.90
2017-06-23T04:29:14.715Z,92.90
2017-06-23T04:31:42.282Z,92.40
2017-06-23T04:34:09.798Z,93.00
2017-06-23T04:36:37.287Z,92.70
2017-06-23T04:39:04.786Z,92.40
2017-06-23T04:41:32.284Z,92.40
2017-06-23T04:44:01.201Z,91.80
2017-06-23T04:46:28.704Z,91.70
2017-06-23T04:48:56.234Z,91.80
2017-06-23T04:51:23.762Z,91.60
2017-06-23T04:53:52.039Z,92.10
2017-06-23T04:56:20.311Z,92.00
2017-06-23T04:58:48.580Z,91.80
2017-06-23T05:01:16.861Z,92.10
2017-06-23T05:03:45.213Z,92.40
2017-06-23T05:06:12.699Z,92.30
2017-06-23T05:08:40.206Z,92.20
2017-06-23T05:11:07.702Z,92.60
2017-06-23T05:13:35.198Z,92.80
2017-06-23T05:16:02.814Z,93.00
2017-06-23T05:18:30.320Z,93.30
2017-06-23T05:20:57.811Z,93.20
2017-06-23T05:23:25.314Z,93.30
2017-06-23T05:25:52.995Z,93.30
2017-06-23T05:28:20.489Z,93.50
2017-06-23T05:30:47.991Z,93.70
2017-06-23T05:33:15.518Z,93.30
2017-06-23T05:35:43.086Z,93.60
2017-06-23T05:38:11.283Z,93.80
2017-06-23T05:40:38.801Z,93.50
2017-06-23T05:43:06.300Z,93.80
2017-06-23T05:45:34.573Z,94.00
2017-06-23T05:48:02.140Z,93.60
2017-06-23T05:50:29.641Z,93.40
2017-06-23T05:52:57.150Z,93.70
2017-06-23T05:55:24.664Z,93.60
2017-06-23T05:57:53.602Z,93.80
2017-06-23T06:00:21.080Z,93.80
2017-06-23T06:02:48.595Z,93.80
2017-06-23T06:05:16.085Z,94.40
2017-06-23T06:07:44.443Z,93.20
2017-06-23T06:10:12.053Z,92.70
2017-06-23T06:12:39.536Z,92.30
2017-06-23T06:15:07.048Z,92.00
2017-06-23T06:17:34.555Z,91.60
2017-06-23T06:20:02.142Z,90.80
2017-06-23T06:22:29.705Z,90.60
2017-06-23T06:24:57.202Z,90.50
2017-06-23T06:27:24.718Z,90.40
2017-06-23T06:29:52.228Z,90.30
2017-06-23T06:32:19.741Z,90.00
2017-06-23T06:34:47.238Z,90.30
2017-06-23T06:37:14.742Z,90.40
2017-06-23T06:39:42.326Z,90.20
2017-06-23T06:42:09.824Z,89.60
2017-06-23T06:44:37.346Z,89.10
2017-06-23T06:47:04.841Z,88.60
2017-06-23T06:49:32.381Z,89.40
2017-06-23T06:52:00.661Z,89.00
2017-06-23T06:54:28.937Z,88.70
2017-06-23T06:56:57.218Z,89.40
2017-06-23T06:59:24.740Z,89.20
2017-06-23T07:01:52.259Z,89.60
2017-06-23T07:04:19.787Z,87.70
2017-06-23T07:06:48.160Z,88.30
2017-06-23T07:09:15.677Z,88.20
2017-06-23T07:11:43.199Z,87.90
2017-06-23T07:14:10.710Z,88.70
2017-06-23T07:16:38.198Z,87.30
2017-06-23T07:19:05.729Z,87.20
2017-06-23T07:21:33.239Z,86.80
2017-06-23T07:24:00.766Z,87.00
2017-06-23T07:26:28.287Z,85.90
2017-06-23T07:28:55.796Z,85.50
2017-06-23T07:31:24.116Z,86.60
2017-06-23T07:33:51.662Z,86.60
2017-06-23T07:36:19.211Z,86.00
2017-06-23T07:38:47.461Z,86.10
2017-06-23T07:41:15.026Z,86.00
2017-06-23T07:43:42.530Z,86.10
2017-06-23T07:46:10.013Z,85.80
2017-06-23T07:48:37.521Z,85.30
2017-06-23T07:51:05.815Z,85.40
2017-06-23T07:53:33.306Z,84.30
2017-06-23T07:56:00.815Z,83.60
2017-06-23T07:58:28.334Z,83.10
2017-06-23T08:00:55.815Z,82.40
2017-06-23T08:03:23.321Z,80.00
2017-06-23T08:05:50.821Z,79.90
2017-06-23T08:08:19.630Z,79.40
2017-06-23T08:10:47.895Z,79.00
2017-06-23T08:13:15.411Z,78.90
2017-06-23T08:15:42.926Z,78.70
2017-06-23T08:18:10.430Z,79.10
2017-06-23T08:20:38.630Z,78.80
2017-06-23T08:23:06.159Z,78.10
2017-06-23T08:25:33.641Z,79.30
2017-06-23T08:28:01.142Z,77.90
2017-06-23T08:30:29.422Z,75.90
2017-06-23T08:32:57.688Z,73.20
2017-06-23T08:35:25.957Z,73.50
2017-06-23T08:37:53.447Z,73.40
2017-06-23T08:40:20.910Z,74.00
2017-06-23T08:42:48.451Z,72.30
2017-06-23T08:45:22.086Z,72.50
2017-06-23T08:47:49.605Z,70.40
2017-06-23T08:50:18.318Z,69.20
2017-06-23T08:52:45.795Z,69.10
2017-06-23T08:55:13.318Z,68.90
2017-06-23T08:57:40.980Z,68.00
2017-06-23T09:00:08.472Z,65.60
2017-06-23T09:02:35.965Z,64.80
2017-06-23T09:05:03.493Z,64.60
2017-06-23T09:07:30.983Z,64.60
2017-06-23T09:09:58.536Z,63.40
2017-06-23T09:12:26.028Z,62.30
2017-06-23T09:14:54.321Z,62.90
2017-06-23T09:17:21.815Z,61.80
2017-06-23T09:19:49.295Z,62.70
2017-06-23T09:22:16.781Z,60.40
2017-06-23T09:24:44.262Z,60.90
2017-06-23T09:27:11.803Z,60.20
2017-06-23T09:29:40.050Z,59.90
2017-06-23T09:32:07.542Z,59.80
2017-06-23T09:34:35.085Z,59.30
2017-06-23T09:37:02.591Z,59.50
2017-06-23T09:39:30.059Z,59.20
2017-06-23T09:41:57.552Z,59.60
2017-06-23T09:44:25.051Z,59.60
2017-06-23T09:46:52.557Z,59.50
2017-06-23T09:49:20.053Z,58.90
2017-06-23T09:51:47.573Z,58.90
2017-06-23T09:54:15.034Z,58.10
2017-06-23T09:56:42.566Z,58.50
2017-06-23T09:59:10.066Z,59.30
2017-06-23T10:01:37.596Z,58.70
2017-06-23T10:04:05.873Z,59.20
2017-06-23T10:06:33.366Z,58.60
2017-06-23T10:09:00.857Z,58.90
2017-06-23T10:11:28.381Z,59.00
2017-06-23T10:13:55.867Z,59.50
2017-06-23T10:16:23.362Z,59.40
2017-06-23T10:18:50.843Z,59.50
2017-06-23T10:21:18.381Z,59.50
2017-06-23T10:23:45.914Z,58.80
2017-06-23T10:26:13.418Z,58.80
2017-06-23T10:28:41.483Z,58.60
2017-06-23T10:31:09.001Z,57.70
2017-06-23T10:33:36.543Z,57.00
2017-06-23T10:36:04.026Z,55.50
2017-06-23T10:38:31.534Z,55.10
2017-06-23T10:40:59.040Z,55.30
2017-06-23T10:43:26.524Z,56.00
2017-06-23T10:45:54.028Z,56.20
2017-06-23T10:48:21.555Z,56.20
2017-06-23T10:50:49.039Z,56.80
2017-06-23T10:53:16.541Z,57.20
2017-06-23T10:55:44.051Z,56.80
2017-06-23T10:58:11.574Z,57.20
2017-06-23T11:00:39.084Z,57.50
2017-06-23T11:03:08.217Z,56.80
2017-06-23T11:05:37.261Z,57.10
2017-06-23T11:08:04.840Z,57.00
2017-06-23T11:10:32.375Z,56.20
2017-06-23T11:12:59.876Z,55.40
2017-06-23T11:15:27.375Z,55.90
2017-06-23T11:17:54.886Z,56.20
2017-06-23T11:20:22.381Z,55.90
2017-06-23T11:22:49.898Z,55.90
2017-06-23T11:25:18.198Z,54.90
2017-06-23T11:27:45.774Z,54.80
2017-06-23T11:30:13.278Z,55.00
2017-06-23T11:32:40.784Z,54.70
2017-06-23T11:35:08.301Z,54.40
2017-06-23T11:37:35.789Z,54.30
2017-06-23T11:40:03.293Z,54.50
2017-06-23T11:42:30.782Z,54.10
2017-06-23T11:44:59.056Z,53.90
2017-06-23T11:47:27.311Z,52.90
2017-06-23T11:49:54.786Z,53.20
2017-06-23T11:52:22.312Z,53.00
2017-06-23T11:54:49.814Z,53.00
2017-06-23T11:57:17.316Z,53.80
2017-06-23T11:59:44.828Z,53.40
2017-06-23T12:02:13.095Z,52.80
2017-06-23T12:04:40.590Z,52.70
2017-06-23T12:07:08.128Z,52.40
2017-06-23T12:09:35.639Z,52.70
2017-06-23T12:12:03.141Z,51.70
2017-06-23T12:14:31.380Z,52.50
2017-06-23T12:16:58.864Z,52.30
2017-06-23T12:19:26.392Z,52.20
2017-06-23T12:21:53.898Z,52.20
2017-06-23T12:24:21.406Z,52.50
2017-06-23T12:26:48.900Z,52.60
2017-06-23T12:29:16.391Z,53.10
2017-06-23T12:31:43.908Z,53.30
2017-06-23T12:34:11.439Z,53.60
2017-06-23T12:36:38.926Z,53.00
2017-06-23T12:39:06.743Z,52.70
2017-06-23T12:41:34.235Z,53.10
2017-06-23T12:44:01.736Z,53.00
2017-06-23T12:46:30.016Z,52.80
2017-06-23T12:48:58.278Z,51.80
2017-06-23T12:51:25.773Z,51.80
2017-06-23T12:53:53.307Z,52.30
2017-06-23T12:56:20.786Z,51.90
2017-06-23T12:58:48.292Z,51.70
2017-06-23T13:01:15.786Z,51.90
2017-06-23T13:03:44.056Z,52.00
2017-06-23T13:06:12.342Z,52.00
2017-06-23T13:08:40.580Z,51.90
2017-06-23T13:11:08.096Z,51.80
2017-06-23T13:13:35.589Z,51.50
2017-06-23T13:16:03.133Z,51.10
2017-06-23T13:18:30.633Z,50.70
2017-06-23T13:20:58.252Z,50.80
2017-06-23T13:23:25.756Z,50.20
2017-06-23T13:25:53.297Z,50.80
2017-06-23T13:28:20.797Z,51.20
2017-06-23T13:30:48.326Z,51.70
2017-06-23T13:33:15.829Z,52.30
2017-06-23T13:35:43.338Z,52.00
2017-06-23T13:38:10.825Z,52.50
2017-06-23T13:40:38.351Z,52.50
2017-06-23T13:43:05.859Z,53.00
2017-06-23T13:45:33.347Z,53.00
2017-06-23T13:48:00.867Z,52.80
2017-06-23T13:50:28.364Z,52.70
2017-06-23T13:52:55.845Z,53.40
2017-06-23T13:55:23.344Z,53.10
2017-06-23T13:57:51.606Z,52.60
2017-06-23T14:00:19.122Z,52.60
2017-06-23T14:02:46.845Z,51.70
2017-06-23T14:05:14.338Z,51.30
2017-06-23T14:07:41.854Z,51.00
2017-06-23T14:10:10.125Z,51.70
2017-06-23T14:12:37.633Z,51.70
2017-06-23T14:15:05.115Z,52.40
2017-06-23T14:17:32.601Z,52.90
2017-06-23T14:20:00.108Z,53.00
2017-06-23T14:22:27.620Z,53.50
2017-06-23T14:24:55.127Z,54.30
2017-06-23T14:27:22.635Z,53.60
2017-06-23T14:29:50.125Z,53.40
2017-06-23T14:32:17.618Z,53.80
2017-06-23T14:34:45.142Z,54.00
2017-06-23T14:37:12.629Z,54.50
2017-06-23T14:39:40.104Z,54.70
2017-06-23T14:42:07.625Z,54.00
2017-06-23T14:44:35.129Z,54.20
2017-06-23T14:47:02.616Z,53.60
2017-06-23T14:49:30.902Z,52.70
2017-06-23T14:51:59.860Z,51.80
2017-06-23T14:54:27.380Z,51.70
2017-06-23T14:56:54.912Z,51.80
2017-06-23T14:59:23.203Z,51.00
2017-06-23T15:01:50.695Z,51.00
2017-06-23T15:04:18.258Z,50.80
2017-06-23T15:06:45.772Z,49.70
2017-06-23T15:09:14.035Z,49.40
2017-06-23T15:11:42.597Z,48.50
2017-06-23T15:14:10.097Z,48.50
2017-06-23T15:16:38.443Z,48.50
2017-06-23T15:19:05.931Z,48.50
2017-06-23T15:21:33.514Z,48.60
2017-06-23T15:24:01.029Z,48.70
2017-06-23T15:26:28.529Z,48.50
2017-06-23T15:28:56.093Z,47.50
2017-06-23T15:31:23.579Z,47.70
2017-06-23T15:33:51.065Z,47.40
2017-06-23T15:36:19.328Z,48.20
2017-06-23T15:38:46.828Z,47.60
2017-06-23T15:41:14.326Z,48.30
2017-06-23T15:43:41.865Z,48.00
2017-06-23T15:46:09.375Z,48.20
2017-06-23T15:48:36.881Z,48.70
2017-06-23T15:51:04.375Z,48.80
2017-06-23T15:53:31.951Z,48.60
2017-06-23T15:55:59.461Z,48.10
2017-06-23T15:58:26.947Z,47.30
2017-06-23T16:00:54.425Z,47.40
2017-06-23T16:03:22.759Z,46.70
2017-06-23T16:05:50.321Z,47.30
2017-06-23T16:08:17.836Z,46.90
2017-06-23T16:10:45.341Z,47.40
2017-06-23T16:13:12.862Z,48.00
2017-06-23T16:15:41.150Z,48.80
2017-06-23T16:18:08.685Z,48.70
2017-06-23T16:20:36.207Z,48.10
2017-06-23T16:23:03.715Z,48.10
2017-06-23T16:25:31.976Z,48.40
2017-06-23T16:27:59.496Z,48.30
2017-06-23T16:30:27.034Z,46.60
2017-06-23T16:32:54.551Z,47.30
2017-06-23T16:35:22.046Z,48.00
2017-06-23T16:37:49.575Z,48.40
2017-06-23T16:40:17.061Z,48.40
2017-06-23T16:42:45.538Z,48.80
2017-06-23T16:45:13.058Z,48.50
2017-06-23T16:47:40.543Z,47.80
2017-06-23T16:50:08.800Z,47.60
2017-06-23T16:52:36.273Z,47.10
2017-06-23T16:55:03.788Z,45.50
2017-06-23T16:57:31.354Z,46.00
2017-06-23T16:59:58.904Z,46.00
2017-06-23T17:02:26.402Z,46.40
2017-06-23T17:04:54.422Z,47.10
2017-06-23T17:07:21.955Z,46.90
2017-06-23T17:09:49.482Z,47.50
2017-06-23T17:12:19.836Z,47.80
2017-06-23T17:14:47.329Z,47.60
2017-06-23T17:17:14.809Z,47.40
2017-06-23T17:19:42.356Z,47.70
2017-06-23T17:22:09.859Z,48.00
2017-06-23T17:24:37.337Z,48.10
2017-06-23T17:27:05.601Z,48.70
2017-06-23T17:29:33.857Z,48.50
2017-06-23T17:32:01.314Z,48.50
2017-06-23T17:34:28.846Z,48.70
2017-06-23T17:36:58.703Z,48.60
2017-06-23T17:39:26.228Z,49.00
2017-06-23T17:41:53.747Z,49.60
2017-06-23T17:44:21.433Z,49.30
2017-06-23T17:46:48.977Z,49.50
2017-06-23T17:49:16.483Z,49.60
2017-06-23T17:51:43.982Z,49.50
2017-06-23T17:54:11.515Z,49.40
2017-06-23T17:56:39.078Z,49.90
2017-06-23T17:59:06.609Z,49.90
2017-06-23T18:01:34.112Z,49.60
2017-06-23T18:04:02.391Z,50.00
2017-06-23T18:06:30.781Z,50.20
2017-06-23T18:08:58.341Z,50.20
2017-06-23T18:11:25.825Z,50.30
2017-06-23T18:13:53.351Z,50.40
2017-06-23T18:16:20.865Z,50.50
2017-06-23T18:18:48.383Z,51.00
2017-06-23T18:21:15.866Z,51.20
2017-06-23T18:23:43.375Z,51.00
2017-06-23T18:26:10.958Z,50.60
2017-06-23T18:28:38.621Z,50.60
2017-06-23T18:31:06.180Z,50.50
2017-06-23T18:33:33.674Z,50.80
2017-06-23T18:36:01.235Z,50.70
2017-06-23T18:38:28.946Z,50.70
2017-06-23T18:40:56.443Z,50.70
2017-06-23T18:43:23.953Z,50.70
2017-06-23T18:45:51.466Z,50.80
2017-06-23T18:48:18.942Z,51.00
2017-06-23T18:50:46.541Z,51.10
2017-06-23T18:53:14.858Z,51.40
2017-06-23T18:55:42.473Z,51.40
2017-06-23T18:58:09.978Z,51.20
2017-06-23T19:00:37.477Z,51.30
2017-06-23T19:03:05.044Z,51.10
2017-06-23T19:05:32.536Z,51.40
2017-06-23T19:08:00.057Z,51.60
2017-06-23T19:10:27.570Z,51.20
2017-06-23T19:12:55.053Z,51.40
2017-06-23T19:15:22.562Z,51.60
2017-06-23T19:17:50.837Z,51.90
2017-06-23T19:20:19.112Z,51.70
2017-06-23T19:22:47.382Z,51.90
2017-06-23T19:25:15.655Z,51.60
2017-06-23T19:27:43.200Z,52.00
2017-06-23T19:30:10.679Z,51.90
2017-06-23T19:32:38.173Z,52.10
2017-06-23T19:35:05.734Z,52.20
2017-06-23T19:37:33.265Z,52.40
2017-06-23T19:40:00.768Z,52.50
2017-06-23T19:42:28.437Z,52.80
2017-06-23T19:44:56.063Z,52.80
2017-06-23T19:47:23.573Z,53.10
2017-06-23T19:49:51.102Z,53.10
2017-06-23T19:52:18.633Z,53.20
2017-06-23T19:54:46.122Z,53.30
2017-06-23T19:57:13.641Z,53.00
2017-06-23T19:59:41.894Z,53.10
2017-06-23T20:02:09.414Z,53.10
2017-06-23T20:04:36.903Z,53.20
2017-06-23T20:07:04.421Z,53.30
2017-06-23T20:09:31.916Z,53.90
2017-06-23T20:11:59.402Z,53.40
2017-06-23T20:14:26.913Z,53.70
2017-06-23T20:16:54.417Z,53.80
2017-06-23T20:19:21.916Z,54.20
2017-06-23T20:21:49.448Z,54.50
2017-06-23T20:24:17.754Z,54.50
2017-06-23T20:26:45.310Z,54.40
2017-06-23T20:29:12.839Z,54.60
2017-06-23T20:31:41.110Z,54.50
2017-06-23T20:34:08.738Z,54.50
2017-06-23T20:36:36.231Z,54.60
2017-06-23T20:39:03.747Z,55.50
2017-06-23T20:41:31.272Z,54.90
2017-06-23T20:43:58.752Z,54.90
2017-06-23T20:46:26.239Z,54.30
2017-06-23T20:48:53.725Z,54.60
2017-06-23T20:51:21.223Z,54.70
2017-06-23T20:53:48.734Z,54.20
2017-06-23T20:56:16.221Z,54.30
2017-06-23T20:58:43.763Z,54.50
2017-06-23T21:01:12.037Z,55.00
2017-06-23T21:03:39.539Z,54.30
2017-06-23T21:06:07.051Z,54.60
2017-06-23T21:08:34.539Z,54.30
2017-06-23T21:11:02.052Z,54.20
2017-06-23T21:13:29.579Z,54.60
2017-06-23T21:15:57.115Z,54.70
2017-06-23T21:18:24.601Z,54.70
2017-06-23T21:20:52.989Z,54.80
2017-06-23T21:23:20.488Z,54.80
2017-06-23T21:25:48.005Z,54.70
2017-06-23T21:28:15.553Z,55.00
2017-06-23T21:30:43.324Z,55.10
2017-06-23T21:33:10.837Z,55.00
2017-06-23T21:35:39.085Z,54.40
2017-06-23T21:38:06.598Z,54.90
2017-06-23T21:40:54.829Z,55.00
2017-06-23T21:43:22.340Z,55.00
2017-06-23T21:45:49.837Z,54.60
2017-06-23T21:48:18.104Z,53.90
2017-06-23T21:50:45.611Z,53.90
2017-06-23T21:53:13.108Z,53.90
2017-06-23T21:55:40.622Z,53.80
2017-06-23T21:58:08.107Z,54.00
2017-06-23T22:00:35.654Z,54.00
2017-06-23T22:03:03.166Z,53.90
2017-06-23T22:05:30.656Z,54.10
2017-06-23T22:07:58.175Z,54.20
2017-06-23T22:10:25.679Z,54.60
2017-06-23T22:12:53.175Z,54.80
2017-06-23T22:15:20.715Z,54.80
2017-06-23T22:17:48.261Z,54.80
2017-06-23T22:20:15.760Z,55.20
2017-06-23T22:22:43.272Z,55.20
2017-06-23T22:25:10.793Z,55.30
2017-06-23T22:27:38.297Z,55.60
2017-06-23T22:30:05.812Z,55.30
2017-06-23T22:32:33.405Z,55.70
2017-06-23T22:35:00.947Z,56.50
2017-06-23T22:37:28.471Z,55.20
2017-06-23T22:39:55.966Z,55.40
2017-06-23T22:42:24.541Z,54.40
2017-06-23T22:44:52.058Z,54.40
2017-06-23T22:47:19.573Z,54.20
2017-06-23T22:49:47.831Z,53.10
2017-06-23T22:52:15.350Z,53.10
2017-06-23T22:54:42.892Z,52.90
2017-06-23T22:57:10.377Z,53.20
2017-06-23T22:59:37.869Z,53.10
2017-06-23T23:02:05.386Z,53.20
2017-06-23T23:04:32.883Z,53.40
2017-06-23T23:07:00.375Z,54.00
2017-06-23T23:09:27.876Z,54.40
2017-06-23T23:11:55.359Z,53.80
2017-06-23T23:14:22.945Z,53.90
2017-06-23T23:16:50.435Z,54.00
2017-06-23T23:19:17.954Z,54.70
2017-06-23T23:21:46.219Z,54.70
2017-06-23T23:24:14.477Z,54.60
2017-06-23T23:26:41.959Z,54.60
2017-06-23T23:29:10.279Z,55.30
2017-06-23T23:31:37.775Z,54.80
2017-06-23T23:34:05.252Z,55.50
2017-06-23T23:36:32.748Z,55.40
2017-06-23T23:39:00.239Z,55.70
2017-06-23T23:41:27.738Z,56.10
2017-06-23T23:43:55.996Z,56.10
2017-06-23T23:46:23.492Z,56.10
2017-06-23T23:48:50.971Z,56.20
2017-06-23T23:51:18.460Z,56.60
2017-06-23T23:53:45.938Z,57.00
2017-06-23T23:56:13.459Z,56.90
2017-06-23T23:58:40.975Z,56.80
